Overbrook, Kansas
Current Conditions -  °F | °C
As of 11:53 AM on Wednesday 26 Nov 2014 (Local Time) from KFOE Reporting Station
Broken Clouds Broken Clouds  
Wind Chill: 35°   Ceiling: 4100
Heat Index: 44°   Visibility: 10mi
Dew Point: 26°   Wind: 25mph
Humidity: 49%   Direction: 320°NW
Pressure: 30.06"   Gusts: 35mph
Location:  38.78°N, 95.56°W
Report Text: KFOE 261753Z 32022G30KT 10SM BKN041 07/M03 A3006 RMK AO2 PK WND 31033/1725 SLP182 T00671033 10083 20033 51020
Loading
Personal Weather Stations






























Interactive Weather Map New forecast layout! Learn more

10-Day Weather Forecast

Advertisements
Track Severe Weather on mobile